Morann, PA (16663)

7:37 PM EST on November 24, 2014 (GMT -0500)
Tyrone | Change Station
CLOSE
Current Station
Personal Weather Station
Location: Tyrone, PA
Elevation: 1138 ft
Nearby Weather Stations
Active Advisory: Wind Advisory Active Notice: Record Report

Elev 1138 ft 40.68 °N, 78.26 °W | Updated 3 minutes ago

Partly Cloudy
Partly Cloudy
62.1 °F
Feels Like 62.1 °F
N
4.0
Wind Variable Wind from SW
Gusts 7.0 mph

Today
High -- | Low -- °F
--% Chance of Precip.
Yesterday
High -- | Low -- °F
Precip. -- in
7:10 AM 4:49 PM
Waxing Crescent, 8% visible
Pressure 29.60 in
Visibility 10.0 miles
Clouds Clear
Dew Point 46 °F
Humidity 55%
Rainfall 0.43 in
Snow Depth Not available.
UV 0 out of 12
Pollen .10 out of 12
Air Quality Not available.
Flu Activity Not available.
METAR KFIG 242354Z AUTO 24009G19KT 10SM CLR 16/04 A2961 RMK AO2 PK WND 23030/2315 SLP024 T01560039 10206 20156 53042

More Conditions Fewer Conditions

Pressure 29.60 in
Visibility 10.0 miles
Clouds Clear
Dew Point 46 °F
Humidity 55%
Rainfall 0.43 in
Snow Depth Not available.
UV 0 out of 12
Pollen .10 out of 12
Air Quality Not available.
Flu Activity Not available.
METAR KFIG 242354Z AUTO 24009G19KT 10SM CLR 16/04 A2961 RMK AO2 PK WND 23030/2315 SLP024 T01560039 10206 20156 53042

More Conditions Fewer Conditions

10-Day Weather Forecast

Almanac

Astronomy

Nov. 24, 2014 Rise Set
Actual Time
Civil Twilight
Nautical Twilight
Astronomical Twilight
Moon
Length of Visible Light
Length of Day
Tomorrow will be .
, % of the Moon is Illuminated

Today's Extremes

State Highs State Lows

Community

WunderPhotos

Upload Photos

1,773,442 photos uploaded!

WunderBlogs® & News

Nearby

Air Quality

  Air Quality AQ Index Pollutant
Not available.

Snow Depth

Station Depth Elevation

Earthquake Activity

City Distance Mag. Time & Date
Minimum magnitude displayed is 2.5.

Coastal Water Temperatures

Place Temperature

Nearby Weather Stations